sensor_id;sensor_type;location;lat;lon;timestamp;pressure;altitude;pressure_sealevel;temperature;humidity
7376;BME280;3728;42.266;24.944;2023-05-14T00:00:50;100182.28;;;16.05;52.42
7376;BME280;3728;42.266;24.944;2023-05-14T00:03:17;100172.22;;;15.98;52.80
7376;BME280;3728;42.266;24.944;2023-05-14T00:05:45;100179.53;;;15.93;53.32
7376;BME280;3728;42.266;24.944;2023-05-14T00:08:13;100186.69;;;15.92;53.39
7376;BME280;3728;42.266;24.944;2023-05-14T00:10:41;100187.19;;;15.86;54.17
7376;BME280;3728;42.266;24.944;2023-05-14T00:13:08;100178.03;;;15.83;54.43
7376;BME280;3728;42.266;24.944;2023-05-14T00:15:36;100173.06;;;15.82;54.38
7376;BME280;3728;42.266;24.944;2023-05-14T00:18:03;100167.16;;;15.85;54.14
7376;BME280;3728;42.266;24.944;2023-05-14T00:20:32;100166.16;;;15.98;53.60
7376;BME280;3728;42.266;24.944;2023-05-14T00:22:59;100168.97;;;15.93;54.94
7376;BME280;3728;42.266;24.944;2023-05-14T00:25:27;100172.44;;;15.85;55.75
7376;BME280;3728;42.266;24.944;2023-05-14T00:27:55;100167.22;;;15.67;56.37
7376;BME280;3728;42.266;24.944;2023-05-14T00:30:22;100170.88;;;15.54;57.85
7376;BME280;3728;42.266;24.944;2023-05-14T00:32:52;100169.16;;;15.50;58.52
7376;BME280;3728;42.266;24.944;2023-05-14T00:35:19;100165.59;;;15.46;59.63
7376;BME280;3728;42.266;24.944;2023-05-14T00:37:47;100176.00;;;15.34;60.86
7376;BME280;3728;42.266;24.944;2023-05-14T00:40:15;100178.81;;;15.37;61.74
7376;BME280;3728;42.266;24.944;2023-05-14T00:42:43;100174.00;;;15.22;61.97
7376;BME280;3728;42.266;24.944;2023-05-14T00:45:11;100174.34;;;15.21;61.99
7376;BME280;3728;42.266;24.944;2023-05-14T00:47:39;100183.78;;;15.22;61.46
7376;BME280;3728;42.266;24.944;2023-05-14T00:50:07;100177.41;;;15.48;59.28
7376;BME280;3728;42.266;24.944;2023-05-14T00:52:36;100183.34;;;15.28;59.79
7376;BME280;3728;42.266;24.944;2023-05-14T00:55:05;100177.59;;;15.18;59.55
7376;BME280;3728;42.266;24.944;2023-05-14T00:57:34;100172.94;;;15.23;60.04
7376;BME280;3728;42.266;24.944;2023-05-14T01:00:03;100168.41;;;15.32;59.28
7376;BME280;3728;42.266;24.944;2023-05-14T01:02:31;100164.13;;;15.02;61.02
7376;BME280;3728;42.266;24.944;2023-05-14T01:04:58;100172.13;;;15.31;64.07
7376;BME280;3728;42.266;24.944;2023-05-14T01:07:35;100164.59;;;14.87;66.23
7376;BME280;3728;42.266;24.944;2023-05-14T01:15:36;100148.19;;;14.64;70.18
7376;BME280;3728;42.266;24.944;2023-05-14T01:18:08;100136.53;;;14.65;71.23
7376;BME280;3728;42.266;24.944;2023-05-14T01:20:37;100134.84;;;14.61;70.16
7376;BME280;3728;42.266;24.944;2023-05-14T01:23:04;100129.88;;;14.68;70.25
7376;BME280;3728;42.266;24.944;2023-05-14T01:25:31;100134.22;;;14.81;68.55
7376;BME280;3728;42.266;24.944;2023-05-14T01:28:07;100128.16;;;14.97;67.31
7376;BME280;3728;42.266;24.944;2023-05-14T01:30:58;100133.56;;;15.01;66.80
7376;BME280;3728;42.266;24.944;2023-05-14T01:33:31;100133.44;;;14.80;68.29
7376;BME280;3728;42.266;24.944;2023-05-14T01:36:00;100143.06;;;14.68;68.65
7376;BME280;3728;42.266;24.944;2023-05-14T01:38:28;100131.75;;;14.76;67.29
7376;BME280;3728;42.266;24.944;2023-05-14T01:41:00;100126.47;;;14.76;67.63
7376;BME280;3728;42.266;24.944;2023-05-14T01:43:28;100118.56;;;14.76;67.76
7376;BME280;3728;42.266;24.944;2023-05-14T01:45:57;100118.09;;;14.57;68.91
7376;BME280;3728;42.266;24.944;2023-05-14T01:48:25;100119.66;;;14.49;69.63
7376;BME280;3728;42.266;24.944;2023-05-14T01:50:52;100116.41;;;14.52;69.03
7376;BME280;3728;42.266;24.944;2023-05-14T01:53:20;100121.81;;;14.64;67.76
7376;BME280;3728;42.266;24.944;2023-05-14T01:55:47;100119.34;;;14.51;68.83
7376;BME280;3728;42.266;24.944;2023-05-14T01:58:15;100121.06;;;14.55;68.67
7376;BME280;3728;42.266;24.944;2023-05-14T02:00:42;100114.69;;;14.65;68.38
7376;BME280;3728;42.266;24.944;2023-05-14T02:03:10;100118.25;;;14.52;69.59
7376;BME280;3728;42.266;24.944;2023-05-14T02:05:37;100115.47;;;14.48;69.98
7376;BME280;3728;42.266;24.944;2023-05-14T02:08:05;100110.97;;;14.49;70.16
7376;BME280;3728;42.266;24.944;2023-05-14T02:10:32;100117.47;;;14.60;70.53
7376;BME280;3728;42.266;24.944;2023-05-14T02:12:59;100125.25;;;14.65;69.18
7376;BME280;3728;42.266;24.944;2023-05-14T02:15:28;100117.94;;;14.62;69.93
7376;BME280;3728;42.266;24.944;2023-05-14T02:17:56;100126.31;;;14.64;68.88
7376;BME280;3728;42.266;24.944;2023-05-14T02:20:23;100130.34;;;14.61;68.39
7376;BME280;3728;42.266;24.944;2023-05-14T02:22:51;100124.75;;;14.54;69.10
7376;BME280;3728;42.266;24.944;2023-05-14T02:25:19;100125.22;;;14.56;68.88
7376;BME280;3728;42.266;24.944;2023-05-14T02:27:47;100127.88;;;14.56;69.44
7376;BME280;3728;42.266;24.944;2023-05-14T02:30:15;100133.31;;;14.60;69.88
7376;BME280;3728;42.266;24.944;2023-05-14T02:32:42;100142.59;;;14.49;70.83
7376;BME280;3728;42.266;24.944;2023-05-14T02:35:10;100131.59;;;14.55;70.09
7376;BME280;3728;42.266;24.944;2023-05-14T02:37:37;100128.66;;;14.48;71.18
7376;BME280;3728;42.266;24.944;2023-05-14T02:40:05;100119.19;;;14.38;71.59
7376;BME280;3728;42.266;24.944;2023-05-14T02:42:34;100111.75;;;14.41;71.92
7376;BME280;3728;42.266;24.944;2023-05-14T02:45:01;100117.78;;;14.32;71.59
7376;BME280;3728;42.266;24.944;2023-05-14T02:47:29;100120.13;;;14.34;71.65
7376;BME280;3728;42.266;24.944;2023-05-14T02:49:56;100132.19;;;14.35;72.51
7376;BME280;3728;42.266;24.944;2023-05-14T02:52:24;100132.66;;;14.37;70.36
7376;BME280;3728;42.266;24.944;2023-05-14T02:54:51;100139.03;;;14.36;69.98
7376;BME280;3728;42.266;24.944;2023-05-14T02:57:19;100144.13;;;14.32;69.51
7376;BME280;3728;42.266;24.944;2023-05-14T02:59:46;100151.44;;;14.35;69.20
7376;BME280;3728;42.266;24.944;2023-05-14T03:02:14;100155.63;;;14.54;67.55
7376;BME280;3728;42.266;24.944;2023-05-14T03:04:42;100152.38;;;14.48;67.62
7376;BME280;3728;42.266;24.944;2023-05-14T03:07:10;100168.19;;;14.48;68.05
7376;BME280;3728;42.266;24.944;2023-05-14T03:09:38;100167.22;;;14.44;67.84
7376;BME280;3728;42.266;24.944;2023-05-14T03:12:06;100170.19;;;14.43;68.93
7376;BME280;3728;42.266;24.944;2023-05-14T03:14:34;100173.13;;;14.32;68.76
7376;BME280;3728;42.266;24.944;2023-05-14T03:17:01;100166.09;;;14.28;69.66
7376;BME280;3728;42.266;24.944;2023-05-14T03:19:29;100171.91;;;14.64;68.14
7376;BME280;3728;42.266;24.944;2023-05-14T03:21:57;100172.00;;;15.19;66.73
7376;BME280;3728;42.266;24.944;2023-05-14T03:24:24;100163.69;;;14.83;68.47
7376;BME280;3728;42.266;24.944;2023-05-14T03:26:52;100170.78;;;14.91;67.52
7376;BME280;3728;42.266;24.944;2023-05-14T03:29:19;100172.03;;;15.11;65.57
7376;BME280;3728;42.266;24.944;2023-05-14T03:31:47;100166.94;;;14.71;66.69
7376;BME280;3728;42.266;24.944;2023-05-14T03:34:16;100167.09;;;14.92;64.11
7376;BME280;3728;42.266;24.944;2023-05-14T03:36:43;100177.28;;;15.19;61.63
7376;BME280;3728;42.266;24.944;2023-05-14T03:39:10;100175.63;;;14.97;61.93
7376;BME280;3728;42.266;24.944;2023-05-14T03:41:41;100173.13;;;14.84;63.56
7376;BME280;3728;42.266;24.944;2023-05-14T03:44:08;100180.72;;;14.94;62.68
7376;BME280;3728;42.266;24.944;2023-05-14T03:46:36;100182.59;;;14.68;64.23
7376;BME280;3728;42.266;24.944;2023-05-14T03:49:03;100182.28;;;14.61;65.13
7376;BME280;3728;42.266;24.944;2023-05-14T03:51:31;100188.66;;;14.68;65.27
7376;BME280;3728;42.266;24.944;2023-05-14T03:53:59;100187.72;;;14.56;66.30
7376;BME280;3728;42.266;24.944;2023-05-14T03:56:27;100191.59;;;14.50;66.98
7376;BME280;3728;42.266;24.944;2023-05-14T03:58:54;100190.19;;;14.52;66.69
7376;BME280;3728;42.266;24.944;2023-05-14T04:01:22;100192.19;;;14.38;67.07
7376;BME280;3728;42.266;24.944;2023-05-14T04:03:49;100196.22;;;14.35;66.88
7376;BME280;3728;42.266;24.944;2023-05-14T04:06:17;100204.84;;;14.27;67.56
7376;BME280;3728;42.266;24.944;2023-05-14T04:08:45;100205.19;;;14.34;67.44
7376;BME280;3728;42.266;24.944;2023-05-14T04:11:12;100205.19;;;14.34;68.48
7376;BME280;3728;42.266;24.944;2023-05-14T04:13:40;100210.38;;;14.74;66.88
7376;BME280;3728;42.266;24.944;2023-05-14T04:16:09;100203.56;;;14.81;66.78
7376;BME280;3728;42.266;24.944;2023-05-14T04:18:37;100197.94;;;15.08;66.09
7376;BME280;3728;42.266;24.944;2023-05-14T04:21:04;100195.94;;;14.97;65.48
7376;BME280;3728;42.266;24.944;2023-05-14T04:23:32;100188.34;;;14.87;66.21
7376;BME280;3728;42.266;24.944;2023-05-14T04:26:00;100185.41;;;14.88;64.43
7376;BME280;3728;42.266;24.944;2023-05-14T04:28:27;100189.09;;;14.96;64.77
7376;BME280;3728;42.266;24.944;2023-05-14T04:30:55;100195.59;;;15.16;63.54
7376;BME280;3728;42.266;24.944;2023-05-14T04:33:23;100192.19;;;15.15;64.10
7376;BME280;3728;42.266;24.944;2023-05-14T04:35:51;100180.06;;;15.23;63.76
7376;BME280;3728;42.266;24.944;2023-05-14T04:38:19;100182.22;;;15.29;62.13
7376;BME280;3728;42.266;24.944;2023-05-14T04:40:47;100186.75;;;15.20;62.89
7376;BME280;3728;42.266;24.944;2023-05-14T04:43:15;100201.59;;;15.42;62.05
7376;BME280;3728;42.266;24.944;2023-05-14T04:45:43;100205.53;;;15.44;61.10
7376;BME280;3728;42.266;24.944;2023-05-14T04:48:11;100211.38;;;15.50;61.13
7376;BME280;3728;42.266;24.944;2023-05-14T04:50:38;100205.28;;;15.66;59.76
7376;BME280;3728;42.266;24.944;2023-05-14T04:53:06;100215.03;;;15.74;59.61
7376;BME280;3728;42.266;24.944;2023-05-14T04:55:33;100237.72;;;16.13;56.88
7376;BME280;3728;42.266;24.944;2023-05-14T04:58:01;100241.78;;;16.40;56.19
7376;BME280;3728;42.266;24.944;2023-05-14T05:00:28;100241.59;;;16.16;56.14
7376;BME280;3728;42.266;24.944;2023-05-14T05:02:56;100229.06;;;16.04;55.91
7376;BME280;3728;42.266;24.944;2023-05-14T05:05:24;100236.22;;;16.04;57.45
7376;BME280;3728;42.266;24.944;2023-05-14T05:07:51;100231.97;;;15.82;57.93
7376;BME280;3728;42.266;24.944;2023-05-14T05:10:19;100233.31;;;16.26;54.97
7376;BME280;3728;42.266;24.944;2023-05-14T05:12:46;100232.66;;;16.29;55.84
7376;BME280;3728;42.266;24.944;2023-05-14T05:15:14;100225.97;;;16.31;55.44
7376;BME280;3728;42.266;24.944;2023-05-14T05:17:42;100219.31;;;16.25;55.65
7376;BME280;3728;42.266;24.944;2023-05-14T05:20:09;100221.72;;;16.10;56.12
7376;BME280;3728;42.266;24.944;2023-05-14T05:22:39;100226.16;;;16.26;55.26
7376;BME280;3728;42.266;24.944;2023-05-14T05:25:07;100212.50;;;16.24;54.50
7376;BME280;3728;42.266;24.944;2023-05-14T05:27:35;100215.53;;;16.35;54.69
7376;BME280;3728;42.266;24.944;2023-05-14T05:30:03;100224.28;;;16.27;55.82
7376;BME280;3728;42.266;24.944;2023-05-14T05:32:31;100227.47;;;16.12;56.20
7376;BME280;3728;42.266;24.944;2023-05-14T05:34:59;100237.03;;;15.96;56.89
7376;BME280;3728;42.266;24.944;2023-05-14T05:37:27;100248.00;;;15.68;57.98
7376;BME280;3728;42.266;24.944;2023-05-14T05:39:55;100256.03;;;15.81;57.76
7376;BME280;3728;42.266;24.944;2023-05-14T05:42:23;100266.50;;;15.60;59.38
7376;BME280;3728;42.266;24.944;2023-05-14T05:44:51;100256.88;;;15.55;61.87
7376;BME280;3728;42.266;24.944;2023-05-14T05:47:19;100265.44;;;15.61;60.50
7376;BME280;3728;42.266;24.944;2023-05-14T05:49:46;100264.03;;;15.63;61.35
7376;BME280;3728;42.266;24.944;2023-05-14T05:52:14;100269.44;;;15.67;62.42
7376;BME280;3728;42.266;24.944;2023-05-14T05:54:43;100268.63;;;15.84;62.22
7376;BME280;3728;42.266;24.944;2023-05-14T05:57:11;100272.78;;;15.93;61.28
7376;BME280;3728;42.266;24.944;2023-05-14T05:59:42;100272.00;;;16.01;59.43
7376;BME280;3728;42.266;24.944;2023-05-14T06:02:10;100273.41;;;16.28;57.57
7376;BME280;3728;42.266;24.944;2023-05-14T06:04:37;100278.00;;;16.39;57.63
7376;BME280;3728;42.266;24.944;2023-05-14T06:07:05;100279.91;;;16.39;57.47
7376;BME280;3728;42.266;24.944;2023-05-14T06:09:33;100270.97;;;16.52;56.54
7376;BME280;3728;42.266;24.944;2023-05-14T06:12:01;100280.56;;;16.86;55.52
7376;BME280;3728;42.266;24.944;2023-05-14T06:14:28;100285.34;;;16.92;55.49
7376;BME280;3728;42.266;24.944;2023-05-14T06:16:56;100287.00;;;16.76;56.54
7376;BME280;3728;42.266;24.944;2023-05-14T06:19:24;100290.75;;;16.75;56.55
7376;BME280;3728;42.266;24.944;2023-05-14T06:21:51;100290.47;;;16.68;56.06
7376;BME280;3728;42.266;24.944;2023-05-14T06:24:22;100295.31;;;16.66;56.27
7376;BME280;3728;42.266;24.944;2023-05-14T06:26:49;100290.84;;;16.58;56.78
7376;BME280;3728;42.266;24.944;2023-05-14T06:29:17;100294.25;;;16.59;56.69
7376;BME280;3728;42.266;24.944;2023-05-14T06:31:44;100289.97;;;16.75;55.76
7376;BME280;3728;42.266;24.944;2023-05-14T06:34:12;100289.50;;;16.73;56.18
7376;BME280;3728;42.266;24.944;2023-05-14T06:36:39;100292.84;;;16.61;56.69
7376;BME280;3728;42.266;24.944;2023-05-14T06:39:07;100291.53;;;16.76;56.63
7376;BME280;3728;42.266;24.944;2023-05-14T06:41:34;100306.59;;;16.75;55.62
7376;BME280;3728;42.266;24.944;2023-05-14T06:44:02;100312.53;;;16.72;55.71
7376;BME280;3728;42.266;24.944;2023-05-14T06:46:29;100327.31;;;16.73;55.57
7376;BME280;3728;42.266;24.944;2023-05-14T06:48:57;100325.75;;;16.72;55.41
7376;BME280;3728;42.266;24.944;2023-05-14T06:51:26;100335.44;;;16.97;54.37
7376;BME280;3728;42.266;24.944;2023-05-14T06:53:54;100332.06;;;16.88;55.36
7376;BME280;3728;42.266;24.944;2023-05-14T06:56:23;100342.97;;;16.58;55.63
7376;BME280;3728;42.266;24.944;2023-05-14T06:58:50;100343.16;;;16.44;56.96
7376;BME280;3728;42.266;24.944;2023-05-14T07:01:18;100351.03;;;17.11;58.44
7376;BME280;3728;42.266;24.944;2023-05-14T07:03:46;100356.78;;;16.63;60.59
7376;BME280;3728;42.266;24.944;2023-05-14T07:06:14;100366.22;;;16.35;61.99
7376;BME280;3728;42.266;24.944;2023-05-14T07:08:43;100370.09;;;15.83;65.26
7376;BME280;3728;42.266;24.944;2023-05-14T07:11:14;100380.50;;;15.62;68.40
7376;BME280;3728;42.266;24.944;2023-05-14T07:13:41;100386.41;;;15.85;68.11
7376;BME280;3728;42.266;24.944;2023-05-14T07:16:09;100389.97;;;15.46;70.86
7376;BME280;3728;42.266;24.944;2023-05-14T07:18:36;100382.34;;;15.79;69.33
7376;BME280;3728;42.266;24.944;2023-05-14T07:21:04;100378.69;;;16.26;68.38
7376;BME280;3728;42.266;24.944;2023-05-14T07:23:32;100376.63;;;15.77;71.24
7376;BME280;3728;42.266;24.944;2023-05-14T07:26:07;100374.59;;;15.39;75.41
7376;BME280;3728;42.266;24.944;2023-05-14T07:28:34;100374.56;;;15.22;78.55
7376;BME280;3728;42.266;24.944;2023-05-14T07:31:02;100357.31;;;15.07;76.49
7376;BME280;3728;42.266;24.944;2023-05-14T07:33:35;100355.63;;;15.12;76.93
7376;BME280;3728;42.266;24.944;2023-05-14T07:36:02;100339.31;;;15.01;77.10
7376;BME280;3728;42.266;24.944;2023-05-14T07:38:31;100334.97;;;14.88;79.67
7376;BME280;3728;42.266;24.944;2023-05-14T07:40:58;100323.63;;;14.96;79.85
7376;BME280;3728;42.266;24.944;2023-05-14T07:43:26;100322.88;;;14.95;79.80
7376;BME280;3728;42.266;24.944;2023-05-14T07:45:54;100317.59;;;15.04;80.11
7376;BME280;3728;42.266;24.944;2023-05-14T07:48:22;100319.31;;;15.08;81.57
7376;BME280;3728;42.266;24.944;2023-05-14T07:50:49;100327.53;;;15.24;83.51
7376;BME280;3728;42.266;24.944;2023-05-14T07:53:17;100337.00;;;15.34;86.28
7376;BME280;3728;42.266;24.944;2023-05-14T07:55:45;100343.22;;;15.38;87.05
7376;BME280;3728;42.266;24.944;2023-05-14T07:58:13;100349.25;;;15.38;87.02
7376;BME280;3728;42.266;24.944;2023-05-14T08:00:41;100349.91;;;15.44;85.06
7376;BME280;3728;42.266;24.944;2023-05-14T08:03:09;100360.16;;;15.45;84.16
7376;BME280;3728;42.266;24.944;2023-05-14T08:05:37;100373.53;;;15.49;83.74
7376;BME280;3728;42.266;24.944;2023-05-14T08:08:04;100371.63;;;15.32;83.99
7376;BME280;3728;42.266;24.944;2023-05-14T08:10:32;100352.53;;;15.35;86.08
7376;BME280;3728;42.266;24.944;2023-05-14T08:13:01;100339.97;;;15.32;87.19
7376;BME280;3728;42.266;24.944;2023-05-14T08:15:29;100332.03;;;15.32;87.64
7376;BME280;3728;42.266;24.944;2023-05-14T08:17:57;100337.03;;;15.42;87.54
7376;BME280;3728;42.266;24.944;2023-05-14T08:20:29;100344.94;;;15.51;87.33
7376;BME280;3728;42.266;24.944;2023-05-14T08:22:57;100345.69;;;15.43;87.78
7376;BME280;3728;42.266;24.944;2023-05-14T08:25:26;100351.75;;;15.35;88.53
7376;BME280;3728;42.266;24.944;2023-05-14T08:27:54;100351.59;;;15.31;89.67
7376;BME280;3728;42.266;24.944;2023-05-14T08:30:22;100365.72;;;15.44;89.36
7376;BME280;3728;42.266;24.944;2023-05-14T08:32:50;100375.09;;;15.58;88.80
7376;BME280;3728;42.266;24.944;2023-05-14T08:35:18;100399.72;;;15.37;89.35
7376;BME280;3728;42.266;24.944;2023-05-14T08:37:46;100403.78;;;15.26;91.08
7376;BME280;3728;42.266;24.944;2023-05-14T08:40:15;100404.38;;;15.14;91.23
7376;BME280;3728;42.266;24.944;2023-05-14T08:42:46;100397.19;;;14.97;89.56
7376;BME280;3728;42.266;24.944;2023-05-14T08:45:17;100396.56;;;15.00;91.17
7376;BME280;3728;42.266;24.944;2023-05-14T08:47:49;100397.03;;;14.94;91.52
7376;BME280;3728;42.266;24.944;2023-05-14T08:50:17;100402.41;;;14.72;92.35
7376;BME280;3728;42.266;24.944;2023-05-14T08:52:49;100409.63;;;14.58;94.98
7376;BME280;3728;42.266;24.944;2023-05-14T08:55:17;100414.34;;;14.38;96.25
7376;BME280;3728;42.266;24.944;2023-05-14T08:57:49;100413.25;;;14.39;97.14
7376;BME280;3728;42.266;24.944;2023-05-14T09:00:16;100415.91;;;14.17;99.59
7376;BME280;3728;42.266;24.944;2023-05-14T09:02:45;100417.09;;;14.11;100.00
7376;BME280;3728;42.266;24.944;2023-05-14T09:05:15;100413.28;;;13.95;100.00
7376;BME280;3728;42.266;24.944;2023-05-14T09:07:44;100396.88;;;13.98;100.00
7376;BME280;3728;42.266;24.944;2023-05-14T09:10:11;100390.31;;;14.18;100.00
7376;BME280;3728;42.266;24.944;2023-05-14T09:12:40;100369.44;;;14.21;100.00
7376;BME280;3728;42.266;24.944;2023-05-14T09:15:08;100358.16;;;14.29;100.00
7376;BME280;3728;42.266;24.944;2023-05-14T09:17:36;100352.28;;;14.32;100.00
7376;BME280;3728;42.266;24.944;2023-05-14T09:20:04;100341.38;;;14.48;100.00
7376;BME280;3728;42.266;24.944;2023-05-14T09:22:33;100346.19;;;14.54;100.00
7376;BME280;3728;42.266;24.944;2023-05-14T09:25:06;100351.13;;;14.56;100.00
7376;BME280;3728;42.266;24.944;2023-05-14T09:27:35;100351.53;;;14.71;100.00
7376;BME280;3728;42.266;24.944;2023-05-14T09:30:06;100355.66;;;14.55;100.00
7376;BME280;3728;42.266;24.944;2023-05-14T09:32:40;100360.75;;;14.52;100.00
7376;BME280;3728;42.266;24.944;2023-05-14T09:35:23;100357.56;;;14.72;100.00
7376;BME280;3728;42.266;24.944;2023-05-14T09:37:54;100352.69;;;15.04;99.55
7376;BME280;3728;42.266;24.944;2023-05-14T09:40:22;100353.59;;;15.00;100.00
7376;BME280;3728;42.266;24.944;2023-05-14T09:42:50;100355.09;;;14.84;99.18
7376;BME280;3728;42.266;24.944;2023-05-14T09:45:18;100349.06;;;14.92;98.22
7376;BME280;3728;42.266;24.944;2023-05-14T09:47:49;100356.06;;;15.05;95.37
7376;BME280;3728;42.266;24.944;2023-05-14T09:50:20;100358.56;;;15.10;97.54
7376;BME280;3728;42.266;24.944;2023-05-14T09:52:47;100360.59;;;15.39;94.47
7376;BME280;3728;42.266;24.944;2023-05-14T09:55:16;100345.22;;;15.15;97.27
7376;BME280;3728;42.266;24.944;2023-05-14T09:57:44;100336.84;;;15.22;98.67
7376;BME280;3728;42.266;24.944;2023-05-14T10:00:12;100322.09;;;15.12;99.02
7376;BME280;3728;42.266;24.944;2023-05-14T10:02:41;100318.84;;;15.15;100.00
7376;BME280;3728;42.266;24.944;2023-05-14T10:05:13;100319.47;;;15.29;100.00
7376;BME280;3728;42.266;24.944;2023-05-14T10:08:07;100321.03;;;15.30;99.56
7376;BME280;3728;42.266;24.944;2023-05-14T10:10:38;100320.38;;;15.33;100.00
7376;BME280;3728;42.266;24.944;2023-05-14T10:13:12;100324.75;;;15.38;97.16
7376;BME280;3728;42.266;24.944;2023-05-14T10:18:27;100325.38;;;15.35;97.25
7376;BME280;3728;42.266;24.944;2023-05-14T10:21:04;100323.03;;;15.16;97.99
7376;BME280;3728;42.266;24.944;2023-05-14T10:23:33;100321.34;;;15.12;98.61
7376;BME280;3728;42.266;24.944;2023-05-14T10:26:03;100314.47;;;15.19;97.37
7376;BME280;3728;42.266;24.944;2023-05-14T10:28:32;100309.06;;;15.16;98.81
7376;BME280;3728;42.266;24.944;2023-05-14T10:31:00;100314.03;;;15.08;99.56
7376;BME280;3728;42.266;24.944;2023-05-14T10:33:46;100333.31;;;15.52;94.86
7376;BME280;3728;42.266;24.944;2023-05-14T10:36:17;100325.84;;;15.37;97.26
7376;BME280;3728;42.266;24.944;2023-05-14T10:38:54;100328.16;;;15.21;99.40
7376;BME280;3728;42.266;24.944;2023-05-14T10:41:23;100321.94;;;15.17;100.00
7376;BME280;3728;42.266;24.944;2023-05-14T10:43:51;100317.44;;;15.26;100.00
7376;BME280;3728;42.266;24.944;2023-05-14T10:46:19;100312.78;;;15.23;100.00
7376;BME280;3728;42.266;24.944;2023-05-14T10:48:48;100304.56;;;15.25;100.00
7376;BME280;3728;42.266;24.944;2023-05-14T10:51:16;100294.78;;;15.34;100.00
7376;BME280;3728;42.266;24.944;2023-05-14T10:53:47;100296.31;;;15.43;100.00
7376;BME280;3728;42.266;24.944;2023-05-14T10:56:15;100293.38;;;15.53;99.04
7376;BME280;3728;42.266;24.944;2023-05-14T10:58:43;100278.47;;;15.57;97.56
7376;BME280;3728;42.266;24.944;2023-05-14T11:01:13;100266.81;;;16.05;94.61
7376;BME280;3728;42.266;24.944;2023-05-14T11:03:42;100267.09;;;15.74;96.11
7376;BME280;3728;42.266;24.944;2023-05-14T11:06:14;100263.66;;;15.73;98.33
7376;BME280;3728;42.266;24.944;2023-05-14T11:08:42;100271.78;;;15.68;98.86
7376;BME280;3728;42.266;24.944;2023-05-14T11:11:12;100278.72;;;15.82;97.86
7376;BME280;3728;42.266;24.944;2023-05-14T11:13:43;100270.19;;;15.85;98.07
7376;BME280;3728;42.266;24.944;2023-05-14T11:16:12;100259.84;;;16.00;96.76
7376;BME280;3728;42.266;24.944;2023-05-14T11:19:00;100264.91;;;16.14;97.57
7376;BME280;3728;42.266;24.944;2023-05-14T11:21:35;100256.47;;;16.29;96.69
7376;BME280;3728;42.266;24.944;2023-05-14T11:24:04;100259.31;;;16.44;98.03
7376;BME280;3728;42.266;24.944;2023-05-14T11:26:32;100271.78;;;16.73;96.69
7376;BME280;3728;42.266;24.944;2023-05-14T11:29:00;100267.44;;;16.89;95.44
7376;BME280;3728;42.266;24.944;2023-05-14T11:31:34;100261.84;;;16.91;92.68
7376;BME280;3728;42.266;24.944;2023-05-14T11:34:02;100257.81;;;17.26;93.07
7376;BME280;3728;42.266;24.944;2023-05-14T11:36:31;100263.13;;;17.26;91.74
7376;BME280;3728;42.266;24.944;2023-05-14T11:39:02;100263.66;;;17.32;89.53
7376;BME280;3728;42.266;24.944;2023-05-14T11:41:30;100255.38;;;17.54;86.48
7376;BME280;3728;42.266;24.944;2023-05-14T11:43:57;100253.75;;;17.41;89.89
7376;BME280;3728;42.266;24.944;2023-05-14T11:46:58;100231.59;;;17.33;89.42
7376;BME280;3728;42.266;24.944;2023-05-14T11:49:28;100233.06;;;17.22;91.06
7376;BME280;3728;42.266;24.944;2023-05-14T11:51:58;100257.47;;;17.28;90.98
7376;BME280;3728;42.266;24.944;2023-05-14T11:54:31;100268.81;;;17.49;88.51
7376;BME280;3728;42.266;24.944;2023-05-14T11:57:01;100263.94;;;17.51;88.35
7376;BME280;3728;42.266;24.944;2023-05-14T11:59:33;100253.53;;;17.66;89.78
7376;BME280;3728;42.266;24.944;2023-05-14T12:02:02;100246.50;;;17.95;89.98
7376;BME280;3728;42.266;24.944;2023-05-14T12:04:33;100251.03;;;18.30;88.12
7376;BME280;3728;42.266;24.944;2023-05-14T12:07:07;100253.59;;;18.51;87.71
7376;BME280;3728;42.266;24.944;2023-05-14T12:09:39;100256.53;;;18.37;87.71
7376;BME280;3728;42.266;24.944;2023-05-14T12:12:11;100260.09;;;18.41;87.70
7376;BME280;3728;42.266;24.944;2023-05-14T12:14:42;100258.44;;;18.37;84.97
7376;BME280;3728;42.266;24.944;2023-05-14T12:17:18;100256.97;;;18.39;87.00
7376;BME280;3728;42.266;24.944;2023-05-14T12:19:50;100250.81;;;18.23;86.47
7376;BME280;3728;42.266;24.944;2023-05-14T12:22:21;100252.16;;;18.29;87.45
7376;BME280;3728;42.266;24.944;2023-05-14T12:24:54;100242.75;;;18.20;87.14
7376;BME280;3728;42.266;24.944;2023-05-14T12:27:28;100240.53;;;18.22;87.28
7376;BME280;3728;42.266;24.944;2023-05-14T12:30:03;100232.81;;;18.17;88.08
7376;BME280;3728;42.266;24.944;2023-05-14T12:32:37;100216.59;;;18.06;87.76
7376;BME280;3728;42.266;24.944;2023-05-14T12:35:08;100213.03;;;18.14;86.06
7376;BME280;3728;42.266;24.944;2023-05-14T12:37:36;100212.81;;;18.19;84.56
7376;BME280;3728;42.266;24.944;2023-05-14T12:40:06;100204.22;;;17.98;87.29
7376;BME280;3728;42.266;24.944;2023-05-14T12:42:37;100199.81;;;17.78;88.90
7376;BME280;3728;42.266;24.944;2023-05-14T12:45:05;100202.34;;;17.87;87.93
7376;BME280;3728;42.266;24.944;2023-05-14T12:47:35;100199.91;;;18.06;87.64
7376;BME280;3728;42.266;24.944;2023-05-14T12:50:04;100189.94;;;17.78;88.13
7376;BME280;3728;42.266;24.944;2023-05-14T12:52:32;100192.16;;;17.64;88.56
7376;BME280;3728;42.266;24.944;2023-05-14T12:55:06;100187.84;;;17.72;89.06
7376;BME280;3728;42.266;24.944;2023-05-14T12:57:36;100172.19;;;17.67;90.63
7376;BME280;3728;42.266;24.944;2023-05-14T13:00:05;100171.84;;;17.93;86.30
7376;BME280;3728;42.266;24.944;2023-05-14T13:02:46;100164.09;;;18.00;85.47
7376;BME280;3728;42.266;24.944;2023-05-14T13:05:14;100157.84;;;17.68;88.39
7376;BME280;3728;42.266;24.944;2023-05-14T13:07:41;100162.72;;;17.78;88.50
7376;BME280;3728;42.266;24.944;2023-05-14T13:10:09;100170.31;;;18.04;85.13
7376;BME280;3728;42.266;24.944;2023-05-14T13:12:38;100159.59;;;18.00;83.53
7376;BME280;3728;42.266;24.944;2023-05-14T13:15:06;100158.72;;;17.96;83.64
7376;BME280;3728;42.266;24.944;2023-05-14T13:17:35;100150.84;;;18.00;84.96